Time;durP1;ratioP1;P1;durP2;ratioP2;P2;SDS_P1;SDS_P2;PMS_P1;PMS_P2;Temp;Humidity;BMP_temperature;BMP_pressure;BME280_temperature;BME280_humidity;BME280_pressure;Samples;Min_cycle;Max_cycle;Signal;HPM_P1;HPM_P2
2023/02/18 00:01:10;;;;;;;7.23;5.50;;;12.50;7.30;;;;;;5084063;28;20473;-78
2023/02/18 00:03:38;;;;;;;7.10;5.37;;;12.50;6.60;;;;;;5082782;28;20817;-78
2023/02/18 00:06:37;;;;;;;6.80;5.97;;;12.40;11.00;;;;;;5085050;28;20897;-78
2023/02/18 00:09:38;;;;;;;6.27;5.60;;;12.40;16.60;;;;;;5083242;28;20397;-79
2023/02/18 00:12:37;;;;;;;6.90;5.10;;;12.20;23.20;;;;;;5090725;28;20466;-78
2023/02/18 00:15:14;;;;;;;6.00;5.40;;;12.20;27.70;;;;;;5085007;28;20420;-79
2023/02/18 00:18:07;;;;;;;5.83;5.23;;;12.20;33.20;;;;;;5085284;28;20404;-88
2023/02/18 00:20:38;;;;;;;5.97;5.30;;;12.10;43.80;;;;;;5085376;28;20481;-88
2023/02/18 00:23:37;;;;;;;5.70;4.60;;;12.10;43.80;;;;;;5095401;28;20397;-88
2023/02/18 00:26:37;;;;;;;7.20;4.83;;;12.10;43.70;;;;;;5074640;28;20497;-88
2023/02/18 00:29:37;;;;;;;6.33;5.70;;;12.10;43.80;;;;;;5073922;28;20538;-88
2023/02/18 00:32:08;;;;;;;5.90;5.00;;;12.10;43.80;;;;;;5071514;28;20456;-80
2023/02/18 00:35:07;;;;;;;12.00;5.83;;;12.20;43.90;;;;;;5093724;28;20922;-78
2023/02/18 00:38:07;;;;;;;8.43;6.40;;;12.20;43.80;;;;;;5092406;28;20404;-79
2023/02/18 00:40:38;;;;;;;6.87;5.90;;;12.10;43.80;;;;;;5093932;28;20409;-79
2023/02/18 00:46:38;;;;;;;9.53;7.50;;;12.00;43.70;;;;;;5093491;28;20394;-79
2023/02/18 00:49:08;;;;;;;12.90;6.97;;;11.90;43.60;;;;;;5088509;28;20420;-79
2023/02/18 00:51:38;;;;;;;9.37;7.33;;;11.90;43.60;;;;;;5086501;28;20904;-79
2023/02/18 00:54:08;;;;;;;11.63;6.23;;;12.00;43.70;;;;;;5094105;28;20817;-78
2023/02/18 00:56:38;;;;;;;9.67;7.00;;;12.00;43.70;;;;;;5090815;28;20497;-79
2023/02/18 00:59:03;;;;;;;8.40;6.43;;;12.00;43.90;;;;;;5093571;28;20488;-78
2023/02/18 01:01:29;;;;;;;15.43;7.00;;;12.10;43.80;;;;;;5070216;28;20456;-79
2023/02/18 01:03:55;;;;;;;7.30;6.30;;;12.10;43.80;;;;;;5089136;28;20183;-79
2023/02/18 01:06:38;;;;;;;8.17;6.33;;;12.10;43.80;;;;;;5094489;28;20181;-79
2023/02/18 01:09:08;;;;;;;7.20;5.90;;;12.10;43.80;;;;;;5093537;28;20415;-79
2023/02/18 01:11:38;;;;;;;7.83;5.57;;;12.00;43.70;;;;;;5082296;28;20461;-79
2023/02/18 01:14:14;;;;;;;8.80;6.10;;;12.00;43.70;;;;;;5081920;28;20404;-79
2023/02/18 01:16:43;;;;;;;10.70;5.80;;;12.10;43.80;;;;;;5083085;28;20761;-79
2023/02/18 01:19:37;;;;;;;7.40;4.77;;;12.00;43.70;;;;;;5084069;28;20767;-79
2023/02/18 01:22:08;;;;;;;5.20;4.70;;;12.00;43.70;;;;;;5067284;28;20460;-79
2023/02/18 01:24:37;;;;;;;5.40;4.90;;;12.00;43.60;;;;;;5073572;28;20748;-79
2023/02/18 01:27:03;;;;;;;4.50;4.10;;;12.10;43.80;;;;;;5081173;28;20428;-79
2023/02/18 01:29:29;;;;;;;7.93;4.50;;;12.10;43.80;;;;;;5091439;28;20444;-79
2023/02/18 01:32:11;;;;;;;5.50;4.40;;;12.20;43.80;;;;;;5087807;28;20434;-79
2023/02/18 01:34:37;;;;;;;8.00;3.93;;;12.20;43.80;;;;;;5075208;28;20174;-79
2023/02/18 01:37:08;;;;;;;4.90;3.83;;;12.30;32.80;;;;;;5078822;28;20939;-79
2023/02/18 01:39:38;;;;;;;3.93;3.63;;;12.30;29.90;;;;;;5089977;28;20564;-80
2023/02/18 01:42:18;;;;;;;3.97;3.53;;;12.30;26.70;;;;;;5093088;28;20907;-79
2023/02/18 01:45:22;;;;;;;3.20;3.00;;;12.20;23.20;;;;;;5093015;28;20450;-79
2023/02/18 01:48:12;;;;;;;3.20;2.90;;;12.20;21.70;;;;;;5093856;28;20894;-89
2023/02/18 01:51:13;;;;;;;2.93;2.70;;;12.10;17.50;;;;;;5072122;28;20437;-88
2023/02/18 01:54:13;;;;;;;5.00;3.00;;;12.10;16.70;;;;;;5067237;28;20433;-88
2023/02/18 01:57:02;;;;;;;4.33;2.50;;;12.10;14.00;;;;;;5066746;28;20519;-88
2023/02/18 01:59:46;;;;;;;3.90;2.60;;;12.10;10.70;;;;;;5093368;28;20424;-88
2023/02/18 02:02:39;;;;;;;7.03;2.33;;;12.10;9.20;;;;;;5093876;28;20417;-88
2023/02/18 02:05:37;;;;;;;6.87;2.20;;;12.00;9.30;;;;;;5072582;28;20428;-88
2023/02/18 02:08:14;;;;;;;1.97;1.77;;;12.00;8.50;;;;;;5069387;28;20438;-89
2023/02/18 02:11:18;;;;;;;2.20;2.10;;;12.00;8.00;;;;;;5079534;28;20439;-88
2023/02/18 02:14:14;;;;;;;2.50;1.97;;;11.90;6.90;;;;;;5078890;28;20544;-88
2023/02/18 02:17:02;;;;;;;9.27;2.13;;;12.00;6.80;;;;;;5090634;28;20477;-88
2023/02/18 02:20:13;;;;;;;1.80;1.70;;;11.90;4.30;;;;;;5068923;28;20435;-78
2023/02/18 02:26:35;;;;;;;1.60;1.50;;;12.00;1.30;;;;;;5112139;28;20545;-78
2023/02/18 02:29:41;;;;;;;2.43;2.23;;;12.10;1.00;;;;;;5104728;28;20454;-79
2023/02/18 02:32:41;;;;;;;2.10;1.90;;;12.00;1.00;;;;;;5086803;28;20516;-79
2023/02/18 02:38:47;;;;;;;2.23;1.40;;;12.00;1.00;;;;;;5080583;28;20390;-78
2023/02/18 02:41:34;;;;;;;1.03;1.03;;;11.90;1.00;;;;;;5096188;28;20922;-78
2023/02/18 02:44:55;;;;;;;0.80;0.80;;;11.90;1.00;;;;;;5095678;28;20489;-78
2023/02/18 02:48:13;;;;;;;1.20;0.80;;;11.90;1.00;;;;;;5096042;28;20786;-79
2023/02/18 02:51:10;;;;;;;0.70;0.70;;;11.90;1.00;;;;;;5078142;28;20440;-87
2023/02/18 02:57:12;;;;;;;2.20;0.90;;;12.00;1.00;;;;;;5093484;28;20544;-88
2023/02/18 03:07:03;;;;;;;0.87;0.87;;;11.80;1.00;;;;;;5096123;28;20419;-88
2023/02/18 03:13:31;;;;;;;0.80;0.80;;;11.90;1.00;;;;;;5034062;28;21044;-87
2023/02/18 03:16:36;;;;;;;2.00;0.90;;;11.90;1.00;;;;;;5024185;28;20414;-88
2023/02/18 03:19:31;;;;;;;0.73;0.73;;;12.00;1.00;;;;;;5033670;28;20437;-87
2023/02/18 03:26:07;;;;;;;0.90;0.90;;;11.90;1.00;;;;;;5019201;28;20555;-88
2023/02/18 03:28:34;;;;;;;1.00;0.90;;;12.00;1.00;;;;;;5014879;28;20544;-88
2023/02/18 03:31:43;;;;;;;1.40;1.10;;;12.00;1.00;;;;;;5017748;28;20402;-87
2023/02/18 03:34:49;;;;;;;1.27;1.20;;;12.00;1.00;;;;;;5034743;28;20438;-88
2023/02/18 03:41:01;;;;;;;2.10;0.93;;;12.00;1.00;;;;;;5034254;28;20457;-88
2023/02/18 03:44:13;;;;;;;1.63;0.80;;;12.00;1.00;;;;;;5037802;28;20426;-88
2023/02/18 03:46:44;;;;;;;0.90;0.90;;;12.00;1.00;;;;;;5071928;28;20399;-87
2023/02/18 03:52:32;;;;;;;0.70;0.70;;;12.00;1.00;;;;;;5080786;28;20495;-78
2023/02/18 03:55:19;;;;;;;0.97;0.87;;;12.10;1.00;;;;;;5093950;28;20408;-78
2023/02/18 04:02:01;;;;;;;1.17;1.00;;;12.00;1.00;;;;;;5077979;28;20404;-78
2023/02/18 04:05:19;;;;;;;0.80;0.80;;;12.00;1.00;;;;;;5078402;28;20390;-88
2023/02/18 04:14:29;;;;;;;1.80;1.70;;;11.80;1.00;;;;;;5075150;28;20396;-87
2023/02/18 04:20:21;;;;;;;1.10;1.10;;;11.80;1.00;;;;;;5087662;28;20885;-78
2023/02/18 04:26:46;;;;;;;1.17;1.07;;;11.80;1.00;;;;;;5074227;28;20401;-77
2023/02/18 04:29:20;;;;;;;1.07;1.07;;;11.90;1.00;;;;;;5090967;28;20443;-78
2023/02/18 04:31:56;;;;;;;1.30;1.20;;;11.90;1.00;;;;;;5094349;28;20416;-78
2023/02/18 04:34:32;;;;;;;1.10;1.10;;;11.90;1.00;;;;;;5081784;28;20929;-87
2023/02/18 04:37:25;;;;;;;1.10;1.10;;;11.90;1.00;;;;;;5094549;28;20417;-87
2023/02/18 04:40:02;;;;;;;1.17;1.07;;;12.00;1.00;;;;;;5094889;28;20420;-87
2023/02/18 04:42:44;;;;;;;1.30;1.20;;;11.90;1.00;;;;;;5092445;28;20412;-87
2023/02/18 04:48:33;;;;;;;1.50;1.40;;;11.90;1.00;;;;;;5092512;28;20433;-86
2023/02/18 04:51:14;;;;;;;1.70;1.60;;;11.80;1.00;;;;;;5076517;28;20767;-79
2023/02/18 04:54:31;;;;;;;2.27;2.00;;;11.90;1.50;;;;;;5087620;28;20447;-78
2023/02/18 04:57:19;;;;;;;1.83;1.67;;;11.90;4.40;;;;;;5074136;28;20447;-78
2023/02/18 04:59:45;;;;;;;;;;;11.80;11.90;;;;;;5083306;28;20493;-77
2023/02/18 05:02:25;;;;;;;;;;;11.70;22.60;;;;;;5086132;28;20391;-79
2023/02/18 05:05:07;;;;;;;;;;;11.60;43.50;;;;;;5090331;28;19931;-78
2023/02/18 05:13:39;;;;;;;;;;;11.50;43.40;;;;;;5094098;28;19949;-78
2023/02/18 05:19:19;;;;;;;;;;;11.40;43.10;;;;;;5091145;28;19912;-78
2023/02/18 05:27:51;;;;;;;;;;;11.40;43.00;;;;;;5082891;28;19986;-77
2023/02/18 05:30:19;;;;;;;;;;;11.40;43.20;;;;;;5098529;28;20362;-78
2023/02/18 05:32:49;;;;;;;;;;;11.30;43.00;;;;;;5074496;28;19957;-78
2023/02/18 05:38:49;;;;;;;;;;;11.20;42.90;;;;;;5088014;28;19934;-87
2023/02/18 05:47:21;;;;;;;;;;;11.30;43.00;;;;;;5086308;28;19929;-87
2023/02/18 05:49:49;;;;;;;;;;;11.40;43.10;;;;;;5079943;28;19904;-87
2023/02/18 05:52:16;;;;;;;;;;;11.40;43.10;;;;;;5069217;28;19908;-87
2023/02/18 05:57:44;;;;;;;;;;;11.40;27.30;;;;;;5098589;28;19926;-87
2023/02/18 06:03:19;;;;;;;;;;;11.40;25.70;;;;;;5091960;28;19942;-87
2023/02/18 06:24:25;;;;;;;;;;;11.50;1.00;;;;;;5077416;28;20338;-88
2023/02/18 06:27:03;;;;;;;;;;;11.50;1.00;;;;;;5090289;28;19911;-87
2023/02/18 06:36:01;;;;;;;;;;;11.60;1.00;;;;;;5097160;28;19915;-78
2023/02/18 06:41:49;;;;;;;;;;;11.60;1.00;;;;;;5076770;28;19912;-81
2023/02/18 06:47:17;;;;;;;;;;;11.60;1.00;;;;;;5089682;28;20336;-78
2023/02/18 06:53:07;;;;;;;;;;;11.60;1.00;;;;;;5076717;28;20043;-77
2023/02/18 06:55:49;;;;;;;;;;;11.70;1.00;;;;;;5086293;28;19970;-76
2023/02/18 06:58:37;;;;;;;;;;;11.60;1.00;;;;;;5083005;28;19918;-76
2023/02/18 07:01:13;;;;;;;;;;;11.60;1.00;;;;;;5107179;28;19938;-77
2023/02/18 07:03:39;;;;;;;;;;;11.60;1.00;;;;;;5110002;28;19944;-77
2023/02/18 07:09:13;;;;;;;;;;;11.60;1.00;;;;;;5086448;28;19923;-76
2023/02/18 07:17:50;;;;;;;;;;;11.60;1.00;;;;;;5080187;28;19911;-76
2023/02/18 07:23:18;;;;;;;;;;;11.60;1.00;;;;;;5095876;28;19995;-78
2023/02/18 07:29:13;;;;;;;;;;;11.60;1.00;;;;;;5090876;28;19923;-78
2023/02/18 07:31:43;;;;;;;;;;;11.60;1.00;;;;;;5095223;28;19911;-78
2023/02/18 07:34:09;;;;;;;;;;;11.60;1.00;;;;;;5082550;28;19912;-78
2023/02/18 07:37:03;;;;;;;;;;;11.60;1.00;;;;;;5104887;28;19911;-75
2023/02/18 07:39:41;;;;;;;;;;;11.70;1.00;;;;;;5077617;28;19958;-76
2023/02/18 07:42:43;;;;;;;;;;;11.70;1.00;;;;;;5088730;28;19955;-76
2023/02/18 07:45:14;;;;;;;;;;;11.70;1.00;;;;;;5103567;28;19950;-76
2023/02/18 07:47:44;;;;;;;;;;;11.70;1.00;;;;;;5106877;28;19912;-76
2023/02/18 07:50:19;;;;;;;;;;;11.80;1.00;;;;;;5091951;28;19923;-76
2023/02/18 07:52:45;;;;;;;;;;;11.80;1.00;;;;;;5085376;28;19943;-71
2023/02/18 07:55:11;;;;;;;;;;;11.80;1.00;;;;;;5084734;28;19974;-71
2023/02/18 07:57:56;;;;;;;;;;;11.90;1.00;;;;;;5086020;28;20382;-71
2023/02/18 08:00:21;;;;;;;;;;;11.90;1.00;;;;;;5093169;28;20267;-70
2023/02/18 08:02:47;;;;;;;;;;;11.90;1.00;;;;;;5091585;28;19905;-71
2023/02/18 08:05:13;;;;;;;;;;;11.80;1.00;;;;;;5085912;28;19998;-71
2023/02/18 08:07:39;;;;;;;;;;;11.80;1.00;;;;;;5087157;28;20260;-71
2023/02/18 08:10:05;;;;;;;;;;;11.80;1.00;;;;;;5087204;28;20309;-70
2023/02/18 08:12:30;;;;;;;;;;;11.70;1.00;;;;;;5094947;28;19908;-70
2023/02/18 08:14:56;;;;;;;;;;;11.60;1.00;;;;;;5094818;28;19908;-70
2023/02/18 08:17:22;;;;;;;;;;;11.60;1.00;;;;;;5081623;28;20271;-71
2023/02/18 08:19:47;;;;;;;;;;;11.60;1.00;;;;;;5089598;28;20282;-71
2023/02/18 08:22:13;;;;;;;;;;;11.60;1.00;;;;;;5090264;28;20255;-71
2023/02/18 08:24:38;;;;;;;;;;;11.60;1.00;;;;;;5093490;28;20274;-71
2023/02/18 08:27:04;;;;;;;;;;;11.60;1.00;;;;;;5092858;28;20398;-71
2023/02/18 08:29:29;;;;;;;;;;;11.60;1.00;;;;;;5086281;28;20322;-70
2023/02/18 08:31:56;;;;;;;;;;;11.70;1.00;;;;;;5081835;28;20252;-71
2023/02/18 08:34:22;;;;;;;;;;;11.70;1.00;;;;;;5089150;28;19913;-70
2023/02/18 08:36:48;;;;;;;;;;;11.80;1.00;;;;;;5090723;28;19912;-73
2023/02/18 08:39:13;;;;;;;;;;;11.90;1.00;;;;;;5091157;28;19908;-73
2023/02/18 08:41:39;;;;;;;;;;;11.90;1.00;;;;;;5094112;28;19915;-74
2023/02/18 08:44:13;;;;;;;;;;;11.90;1.00;;;;;;5094529;28;20294;-74
2023/02/18 08:46:39;;;;;;;;;;;12.00;1.00;;;;;;5093330;28;19947;-73
2023/02/18 08:49:08;;;;;;;;;;;12.10;1.00;;;;;;5085789;28;19916;-73
2023/02/18 08:51:33;;;;;;;;;;;12.10;1.00;;;;;;5097761;28;19908;-70
2023/02/18 08:53:59;;;;;;;;;;;12.20;1.00;;;;;;5092276;28;19908;-71
2023/02/18 08:56:25;;;;;;;;;;;12.30;1.00;;;;;;5086195;28;20017;-70
2023/02/18 08:58:50;;;;;;;;;;;12.30;1.00;;;;;;5089012;28;19915;-71
2023/02/18 09:01:16;;;;;;;;;;;12.40;1.00;;;;;;5090339;28;19915;-71
2023/02/18 09:03:41;;;;;;;;;;;12.50;1.00;;;;;;5086441;28;19970;-71
2023/02/18 09:06:08;;;;;;;5.25;2.50;;;12.50;1.00;;;;;;5089591;28;20415;-71
2023/02/18 09:08:34;;;;;;;2.50;2.30;;;12.40;1.00;;;;;;5091323;28;20183;-73
2023/02/18 09:11:03;;;;;;;2.10;2.00;;;12.40;1.00;;;;;;5070143;28;20485;-74
2023/02/18 09:13:29;;;;;;;2.77;1.90;;;12.50;1.00;;;;;;5087811;28;20448;-73
2023/02/18 09:16:02;;;;;;;2.17;2.07;;;12.30;1.00;;;;;;5093608;28;20450;-73
2023/02/18 09:18:34;;;;;;;2.10;2.00;;;12.50;1.00;;;;;;5092973;28;20491;-74
2023/02/18 09:21:31;;;;;;;2.63;2.20;;;12.50;1.00;;;;;;5089416;28;20427;-85
2023/02/18 09:27:20;;;;;;;1.83;1.70;;;12.50;1.00;;;;;;5094055;28;20425;-86
2023/02/18 09:30:31;;;;;;;4.77;1.63;;;12.50;1.00;;;;;;5094182;28;20477;-86
2023/02/18 09:37:14;;;;;;;2.10;1.90;;;12.60;1.00;;;;;;5087917;28;20458;-87
2023/02/18 09:39:40;;;;;;;2.77;2.57;;;12.70;1.00;;;;;;5093563;28;20547;-77
2023/02/18 09:42:15;;;;;;;2.60;1.70;;;12.80;1.00;;;;;;5075414;28;20424;-76
2023/02/18 09:44:58;;;;;;;1.30;1.30;;;12.70;1.00;;;;;;5093644;28;20404;-76
2023/02/18 09:47:35;;;;;;;1.90;1.80;;;12.60;1.00;;;;;;5093586;28;20423;-76
2023/02/18 09:50:24;;;;;;;1.37;1.30;;;12.70;1.00;;;;;;5064133;28;20746;-77
2023/02/18 09:53:03;;;;;;;3.33;1.47;;;12.70;1.00;;;;;;5093325;28;20464;-81
2023/02/18 09:56:13;;;;;;;0.90;0.90;;;12.50;1.00;;;;;;5093361;28;20426;-81
2023/02/18 09:58:46;;;;;;;1.80;1.00;;;12.40;1.00;;;;;;5093595;28;20386;-84
2023/02/18 10:02:01;;;;;;;1.37;1.00;;;12.30;1.00;;;;;;5093040;28;20448;-83
2023/02/18 10:08:24;;;;;;;1.70;0.90;;;12.50;1.00;;;;;;5089228;28;20373;-78
2023/02/18 10:10:49;;;;;;;1.47;1.03;;;12.50;1.00;;;;;;5078500;28;20471;-89
2023/02/18 10:14:02;;;;;;;0.70;0.70;;;12.50;1.00;;;;;;5087883;28;20487;-88
2023/02/18 10:16:46;;;;;;;0.70;0.70;;;12.70;1.00;;;;;;5085600;28;20198;-88
2023/02/18 10:22:33;;;;;;;1.17;0.70;;;12.60;1.00;;;;;;5087986;28;20395;-89
2023/02/18 10:28:35;;;;;;;0.97;0.70;;;12.40;1.00;;;;;;5093914;28;20676;-88
2023/02/18 10:31:46;;;;;;;0.70;0.70;;;12.50;1.00;;;;;;5079709;28;20500;-87
2023/02/18 10:34:55;;;;;;;0.70;0.70;;;12.60;1.00;;;;;;4998316;28;20567;-88
2023/02/18 10:41:19;;;;;;;0.97;0.60;;;12.50;1.00;;;;;;5012153;28;21049;-78
2023/02/18 10:47:19;;;;;;;1.03;0.60;;;12.50;1.00;;;;;;5014189;28;21021;-78
2023/02/18 10:53:31;;;;;;;0.90;0.70;;;12.50;1.00;;;;;;5013524;28;20997;-78
2023/02/18 10:56:43;;;;;;;2.93;0.77;;;12.40;1.00;;;;;;5003330;28;20803;-87
2023/02/18 11:02:45;;;;;;;0.90;0.50;;;12.40;1.00;;;;;;5014788;28;20393;-88
2023/02/18 11:05:45;;;;;;;3.13;0.60;;;12.40;1.00;;;;;;5014403;28;20466;-87
2023/02/18 11:08:42;;;;;;;1.93;0.70;;;12.50;1.00;;;;;;5002454;28;20981;-89
2023/02/18 11:11:37;;;;;;;0.83;0.60;;;12.50;1.00;;;;;;5040621;28;20901;-89
2023/02/18 11:14:55;;;;;;;0.90;0.60;;;12.50;1.00;;;;;;5078557;28;20460;-90
2023/02/18 11:20:58;;;;;;;0.93;0.63;;;12.40;1.00;;;;;;5095994;28;20904;-91
2023/02/18 11:27:09;;;;;;;0.70;0.70;;;12.10;1.00;;;;;;5077451;28;20411;-77
2023/02/18 11:36:44;;;;;;;1.30;0.83;;;12.30;1.00;;;;;;5078584;28;20416;-78
2023/02/18 11:39:21;;;;;;;0.60;0.60;;;12.30;1.00;;;;;;5095122;28;21005;-78
2023/02/18 11:45:26;;;;;;;0.87;0.60;;;12.30;1.00;;;;;;5088782;28;20458;-79
2023/02/18 11:55:07;;;;;;;6.73;0.87;;;12.30;1.00;;;;;;5086235;28;20515;-78
2023/02/18 12:01:01;;;;;;;3.10;1.00;;;12.30;1.00;;;;;;5066060;28;20424;-78
2023/02/18 12:03:38;;;;;;;0.83;0.83;;;12.30;1.00;;;;;;5074460;28;20445;-79
2023/02/18 12:06:14;;;;;;;1.17;0.90;;;12.20;1.00;;;;;;5074580;28;20413;-79
2023/02/18 12:09:13;;;;;;;1.67;0.90;;;12.30;1.00;;;;;;5074113;28;20420;-80
2023/02/18 12:12:12;;;;;;;3.07;0.80;;;12.40;1.00;;;;;;5056858;28;20433;-78
2023/02/18 12:18:09;;;;;;;0.80;0.80;;;12.40;1.00;;;;;;5073848;28;20408;-79
2023/02/18 12:24:25;;;;;;;4.27;1.07;;;12.50;1.00;;;;;;5066560;28;20508;-78
2023/02/18 12:27:21;;;;;;;1.80;1.10;;;12.50;1.00;;;;;;5064903;28;20384;-79
2023/02/18 12:33:44;;;;;;;3.47;1.20;;;12.40;1.00;;;;;;5058822;28;20507;-78
2023/02/18 12:36:43;;;;;;;1.10;0.90;;;12.40;1.00;;;;;;5060668;28;20401;-78
2023/02/18 12:39:40;;;;;;;5.20;1.30;;;12.50;1.00;;;;;;5066658;28;20767;-78
2023/02/18 12:42:30;;;;;;;1.00;1.00;;;12.50;1.00;;;;;;5074160;28;20899;-78
2023/02/18 12:45:18;;;;;;;102.33;6.97;;;12.50;1.00;;;;;;5073889;28;20484;-76
2023/02/18 12:48:07;;;;;;;8.80;2.10;;;12.50;1.00;;;;;;5062600;28;20390;-77
2023/02/18 12:54:26;;;;;;;1.90;1.17;;;12.60;1.00;;;;;;5073088;28;20452;-78
2023/02/18 12:57:32;;;;;;;1.30;1.20;;;12.50;1.00;;;;;;4973515;28;20421;-79
2023/02/18 13:03:45;;;;;;;1.20;1.10;;;12.50;1.00;;;;;;4972906;28;20828;-79
2023/02/18 13:16:22;;;;;;;2.33;1.23;;;12.60;1.00;;;;;;4913785;29;20531;-79
2023/02/18 13:22:12;;;;;;;1.30;1.20;;;12.40;1.00;;;;;;4915127;29;20399;-80
2023/02/18 13:25:25;;;;;;;2.20;1.10;;;12.50;1.00;;;;;;4908895;29;20471;-80
2023/02/18 13:28:20;;;;;;;2.77;1.47;;;12.40;1.00;;;;;;4914888;29;20455;-87
2023/02/18 13:41:26;;;;;;;4.77;1.77;;;12.20;1.00;;;;;;5009025;28;20406;-84
2023/02/18 13:44:06;;;;;;;3.50;1.30;;;12.30;1.00;;;;;;5060894;28;20415;-76
2023/02/18 13:47:26;;;;;;;2.37;1.30;;;12.40;1.00;;;;;;5073376;28;20426;-75
2023/02/18 13:49:56;;;;;;;2.80;1.60;;;12.50;1.00;;;;;;5072845;28;20467;-76
2023/02/18 13:52:26;;;;;;;3.90;1.77;;;12.50;1.00;;;;;;5073018;28;20368;-76
2023/02/18 13:54:56;;;;;;;4.40;1.40;;;12.50;1.00;;;;;;5078165;28;20605;-75
2023/02/18 13:57:27;;;;;;;2.50;2.07;;;12.40;1.00;;;;;;5067692;28;20417;-75
2023/02/18 14:00:35;;;;;;;1.60;1.50;;;12.40;1.00;;;;;;5066400;28;20405;-76
2023/02/18 14:03:19;;;;;;;2.77;1.30;;;12.40;1.00;;;;;;5062372;28;20428;-76
2023/02/18 14:05:55;;;;;;;3.53;1.40;;;12.30;1.00;;;;;;5065001;28;20492;-76
2023/02/18 14:08:34;;;;;;;2.13;1.47;;;12.20;1.00;;;;;;5077111;28;20496;-75
2023/02/18 14:11:15;;;;;;;3.33;1.30;;;12.20;1.00;;;;;;5076924;28;20409;-76
2023/02/18 14:14:25;;;;;;;2.50;1.60;;;12.20;1.00;;;;;;5065529;28;20452;-84
2023/02/18 14:17:20;;;;;;;2.17;1.67;;;12.10;1.00;;;;;;5076423;28;20419;-87
2023/02/18 14:23:35;;;;;;;4.20;1.47;;;12.10;1.00;;;;;;5077466;28;20455;-88
2023/02/18 14:29:29;;;;;;;4.37;2.37;;;11.90;1.00;;;;;;5076774;28;20444;-88
2023/02/18 14:32:16;;;;;;;2.30;2.10;;;11.80;1.00;;;;;;5055806;28;20432;-86
2023/02/18 14:35:38;;;;;;;3.90;2.10;;;11.80;1.00;;;;;;5054847;28;20404;-87
2023/02/18 14:42:05;;;;;;;5.30;1.87;;;11.80;1.00;;;;;;5056612;28;20485;-90
2023/02/18 14:54:39;;;;;;;2.47;1.87;;;12.00;1.00;;;;;;5068693;28;20416;-89
2023/02/18 14:57:33;;;;;;;2.00;1.87;;;12.00;1.00;;;;;;5058822;28;20862;-89
2023/02/18 14:59:59;;;;;;;2.07;1.87;;;12.10;1.00;;;;;;5074806;28;20475;-76
2023/02/18 15:02:29;;;;;;;3.70;1.93;;;12.20;1.00;;;;;;5065161;28;20417;-76
2023/02/18 15:05:21;;;;;;;1.63;1.53;;;12.20;1.00;;;;;;5061183;28;20417;-76
2023/02/18 15:08:07;;;;;;;2.03;1.93;;;12.10;1.00;;;;;;5069599;28;20432;-76
2023/02/18 15:10:57;;;;;;;2.87;1.63;;;12.20;1.00;;;;;;5057856;28;20429;-77
2023/02/18 15:13:30;;;;;;;1.30;1.20;;;12.10;1.00;;;;;;5076019;28;20467;-76
2023/02/18 15:16:00;;;;;;;2.50;1.40;;;12.20;1.00;;;;;;5062646;28;20939;-76
2023/02/18 15:18:57;;;;;;;2.37;1.63;;;12.20;1.00;;;;;;5065873;28;20974;-75
2023/02/18 15:21:41;;;;;;;1.77;1.40;;;12.10;1.00;;;;;;5063065;28;20916;-75
2023/02/18 15:24:24;;;;;;;4.23;1.27;;;12.10;1.00;;;;;;5074762;28;20429;-76
2023/02/18 15:26:51;;;;;;;5.93;1.20;;;12.10;1.00;;;;;;5074879;28;20814;-78
2023/02/18 15:29:24;;;;;;;1.80;1.20;;;12.20;1.00;;;;;;5075604;28;20449;-77
2023/02/18 15:31:50;;;;;;;1.20;1.10;;;12.20;1.00;;;;;;5078369;28;20408;-77
2023/02/18 15:34:38;;;;;;;3.23;1.40;;;12.20;1.00;;;;;;5074188;28;20449;-77
2023/02/18 15:37:09;;;;;;;2.40;1.30;;;12.20;1.00;;;;;;5074901;28;20432;-77
2023/02/18 15:39:45;;;;;;;1.70;1.60;;;12.30;1.00;;;;;;5075483;28;20524;-77
2023/02/18 15:42:30;;;;;;;1.60;1.50;;;12.30;1.00;;;;;;5074361;28;20427;-77
2023/02/18 15:45:38;;;;;;;5.17;1.70;;;12.30;1.00;;;;;;5060379;28;20392;-76
2023/02/18 15:48:46;;;;;;;1.50;1.20;;;12.20;1.00;;;;;;5070126;28;20478;-77
2023/02/18 15:51:20;;;;;;;1.10;1.00;;;12.10;1.00;;;;;;5074208;28;20402;-76
2023/02/18 15:53:59;;;;;;;2.00;1.37;;;12.10;1.00;;;;;;5058988;28;20449;-76
2023/02/18 15:56:36;;;;;;;1.57;1.10;;;12.20;1.00;;;;;;5070413;28;20414;-75
2023/02/18 15:59:08;;;;;;;3.20;1.40;;;12.20;1.00;;;;;;5074596;28;20387;-77
2023/02/18 16:01:35;;;;;;;1.40;1.20;;;12.10;1.00;;;;;;5074792;28;20434;-77
2023/02/18 16:04:05;;;;;;;1.40;1.30;;;12.10;1.00;;;;;;5068041;28;20435;-77
2023/02/18 16:06:45;;;;;;;1.53;1.23;;;12.10;1.00;;;;;;5074460;28;20375;-76
2023/02/18 16:09:21;;;;;;;6.13;1.50;;;12.10;1.00;;;;;;5060886;28;20958;-76
2023/02/18 16:12:26;;;;;;;1.80;1.10;;;12.20;1.00;;;;;;5069508;28;20440;-79
2023/02/18 16:14:55;;;;;;;1.97;1.50;;;12.20;1.00;;;;;;5064421;28;20425;-77
2023/02/18 16:17:44;;;;;;;1.43;1.27;;;12.10;1.00;;;;;;5044580;28;20454;-77
2023/02/18 16:20:40;;;;;;;2.97;1.50;;;12.20;1.00;;;;;;5061851;28;20779;-78
2023/02/18 16:23:40;;;;;;;1.10;1.10;;;12.20;1.00;;;;;;4991458;28;20478;-78
2023/02/18 16:29:58;;;;;;;1.17;1.17;;;12.10;1.00;;;;;;4992975;28;21026;-77
2023/02/18 16:32:38;;;;;;;1.53;1.23;;;12.10;1.00;;;;;;4988020;28;20403;-78
2023/02/18 16:35:14;;;;;;;5.40;1.40;;;12.00;1.00;;;;;;4992517;28;20435;-78
2023/02/18 16:37:46;;;;;;;4.20;1.63;;;12.10;1.00;;;;;;4988807;28;20417;-76
2023/02/18 16:40:28;;;;;;;1.60;1.50;;;12.10;1.00;;;;;;4992644;28;20810;-76
2023/02/18 16:42:55;;;;;;;1.37;1.27;;;11.90;1.00;;;;;;5011843;28;20441;-75
2023/02/18 16:45:44;;;;;;;2.47;1.40;;;11.90;1.00;;;;;;5012443;28;20412;-76
2023/02/18 16:48:29;;;;;;;2.93;1.30;;;11.90;1.00;;;;;;4999445;28;20392;-76
2023/02/18 16:51:20;;;;;;;1.33;1.10;;;11.90;1.00;;;;;;5018718;28;20419;-78
2023/02/18 16:53:45;;;;;;;1.07;1.07;;;11.80;1.00;;;;;;5009164;28;20870;-75
2023/02/18 16:56:25;;;;;;;1.70;1.50;;;11.80;1.00;;;;;;5012200;28;20419;-76
2023/02/18 16:59:03;;;;;;;1.43;1.33;;;11.70;1.00;;;;;;5022044;28;20218;-77
2023/02/18 17:01:42;;;;;;;2.90;1.37;;;11.70;1.00;;;;;;5054931;28;20448;-77
2023/02/18 17:04:16;;;;;;;2.80;1.40;;;11.70;1.00;;;;;;5065390;28;20498;-76
2023/02/18 17:06:45;;;;;;;2.03;1.60;;;11.70;1.00;;;;;;5056313;28;20753;-76
2023/02/18 17:10:02;;;;;;;1.17;1.17;;;11.70;1.00;;;;;;5072299;28;20432;-78
2023/02/18 17:15:51;;;;;;;1.50;1.40;;;11.70;1.00;;;;;;5070411;28;20455;-80
2023/02/18 17:21:39;;;;;;;8.53;1.20;;;11.70;1.00;;;;;;5067427;28;20547;-79
2023/02/18 17:27:26;;;;;;;1.60;1.50;;;11.70;1.00;;;;;;5066985;28;20432;-77
2023/02/18 17:29:56;;;;;;;1.40;1.30;;;11.60;1.00;;;;;;5073268;28;20401;-76
2023/02/18 17:32:32;;;;;;;0.90;0.90;;;11.60;1.00;;;;;;5074251;28;20171;-76
2023/02/18 17:34:58;;;;;;;1.50;1.40;;;11.50;1.00;;;;;;5072462;28;20403;-76
2023/02/18 17:37:23;;;;;;;1.97;1.40;;;11.50;1.00;;;;;;5069114;28;20943;-76
2023/02/18 17:39:56;;;;;;;2.50;1.50;;;11.50;1.00;;;;;;5076428;28;20194;-76
2023/02/18 17:42:26;;;;;;;1.20;1.20;;;11.50;1.00;;;;;;5077377;28;20182;-76
2023/02/18 17:44:56;;;;;;;1.33;1.23;;;11.40;1.00;;;;;;5078099;28;20830;-76
2023/02/18 17:47:26;;;;;;;4.10;1.27;;;11.40;1.00;;;;;;5077189;28;20397;-76
2023/02/18 17:49:52;;;;;;;1.33;1.23;;;11.40;1.00;;;;;;5073737;28;20511;-75
2023/02/18 17:52:29;;;;;;;3.73;1.87;;;11.40;1.00;;;;;;5065404;28;20483;-76
2023/02/18 17:54:55;;;;;;;3.23;1.40;;;11.40;1.00;;;;;;5075713;28;20250;-76
2023/02/18 17:57:38;;;;;;;3.93;2.10;;;11.40;1.00;;;;;;5076766;28;20809;-76
2023/02/18 18:00:30;;;;;;;2.30;1.90;;;11.40;1.00;;;;;;5077019;28;20400;-77
2023/02/18 18:03:03;;;;;;;1.77;1.60;;;11.30;1.00;;;;;;5072619;28;20433;-77
2023/02/18 18:05:38;;;;;;;4.57;2.10;;;11.30;1.00;;;;;;5076392;28;20421;-77
2023/02/18 18:08:09;;;;;;;3.43;1.80;;;11.40;1.00;;;;;;5071106;28;20449;-77
2023/02/18 18:10:47;;;;;;;5.57;1.60;;;11.40;1.00;;;;;;5067281;28;20426;-77
2023/02/18 18:13:22;;;;;;;2.70;1.57;;;11.50;1.00;;;;;;5074185;28;20913;-76
2023/02/18 18:16:02;;;;;;;1.77;1.60;;;11.50;1.00;;;;;;5075927;28;20416;-77
2023/02/18 18:18:32;;;;;;;1.87;1.70;;;11.50;1.00;;;;;;5065601;28;20459;-77
2023/02/18 18:21:20;;;;;;;2.13;1.40;;;11.40;1.00;;;;;;5076020;28;20391;-77
2023/02/18 18:24:10;;;;;;;2.17;1.80;;;11.40;1.00;;;;;;5076479;28;20430;-77
2023/02/18 18:27:03;;;;;;;2.60;2.00;;;11.40;1.00;;;;;;5076693;28;20397;-77
2023/02/18 18:36:32;;;;;;;3.47;2.37;;;11.30;1.00;;;;;;5062295;28;20750;-77
2023/02/18 18:39:20;;;;;;;2.40;2.17;;;11.30;1.00;;;;;;5076264;28;20420;-77
2023/02/18 18:41:46;;;;;;;1.63;1.53;;;11.30;1.00;;;;;;5076330;28;20491;-77
2023/02/18 18:48:20;;;;;;;2.60;1.70;;;11.30;1.00;;;;;;5069812;28;20673;-77
2023/02/18 18:54:32;;;;;;;3.27;1.77;;;11.30;1.00;;;;;;5095828;28;20474;-78
2023/02/18 19:00:26;;;;;;;2.50;1.47;;;11.30;1.00;;;;;;5075756;28;20410;-79
2023/02/18 19:07:02;;;;;;;3.63;1.70;;;11.30;1.00;;;;;;5069593;28;20400;-78
2023/02/18 19:10:14;;;;;;;2.03;1.60;;;11.30;1.00;;;;;;5075567;28;20415;-79
2023/02/18 19:13:21;;;;;;;1.73;1.60;;;11.20;1.00;;;;;;5067182;28;20456;-79
2023/02/18 19:16:07;;;;;;;1.93;1.77;;;11.20;1.00;;;;;;5014835;28;20487;-78
2023/02/18 19:18:50;;;;;;;1.80;1.53;;;11.20;1.00;;;;;;5013024;28;20927;-77